04:28
Airports
History
Links
Donate
Help keep this website running!
PayPal
Bitcoin
This page is community maintained. The information is intended for PC simulator navigation or reference.
Always use approved charts for navigation.
LIPX
VILLAFRANCA
VILLAFRANCA (LIPX)
Villafranca di Verona, Veneto, Italy (37069)
(C)
Lat/Lng:45° 23' 48.99" N / 10° 53' 25.5" E
45.396942 / 10.890418
Elevation:239'ft / 73mMSL
ID / ICAO:LIPX
Runways:1
Longest:04-22
Asphalt 3,074m / 10,085ft
Controlled:Yes
METAR04:20 GMT 2017-09-22
Altimeter: 30.09
Visibility: 6.2 statute miles
Wind: 2 knots (from 250°)
Temp: 8°c / 46°f
Humidity: 93.4%

METAR: LIPX 220420Z 25002KT CAVOK 08/07 Q1019

(Powered by phpweather)
Airport Radio Frequencies
Ground: 121.75
Tower: 123.25, 118.65, 122.1
Approach: 118.55, 124.25, 124.45
Nearby VORs <50NM
Nearby NDBs
Runway 04 / 22
Dimensions:3073.8 x 45.1m 10085' x 148'ft
Surface:Asphalt
Edge Lights:High intensity
Runway 04 [A]Runway 22 [B]
Heading:045°TH 225°TH
Lat:
Lng:
45° 23' 14.35"N
10° 52' 34.78"E
45° 24' 23.63"N
10° 54' 16.23"E
ALS:ALSF-IISALS
TDZ:Yes
User Notes and Comments
45° 23' 48.99" N / 10° 53' 25.5" E
Distance To
Airport ID:
Nearby Airports
(U) VERONA BOSCOMANTICO 5.5 NM
LIPN NNE 19°
4 Mantova 18.7 NM
LIDM SSW 194°
4 Legnago 26.8 NM
LIDL SE 133°
(C) Montichiari 27.2 NM
LIPO W 274°
(C) GHEDI 30.3 NM
LIPL ( WX ) W 274°
(X) [X] VICENZA 33.3 NM
LIPT ( WX ) ENE 68°
(C) Thiene 35.1 NM
LIDH NE 56°
VFR Chart
Flight Planning at SkyVector.com